Time;durP1;ratioP1;P1;durP2;ratioP2;P2;SDS_P1;SDS_P2;PMS_P1;PMS_P2;Temp;Humidity;BMP_temperature;BMP_pressure;BME280_temperature;BME280_humidity;BME280_pressure;Samples;Min_cycle;Max_cycle;Signal;HPM_P1;HPM_P2
2022/10/08 00:07:55;;;;;;;2.50;1.57;;;;;;;;;;21085658;28;20746;-74
2022/10/08 00:17:57;;;;;;;2.50;1.43;;;;;;;;;;21093542;28;20216;-73
2022/10/08 00:27:59;;;;;;;2.83;1.43;;;;;;;;;;21090666;28;20216;-74
2022/10/08 00:38:01;;;;;;;1.70;1.20;;;;;;;;;;21074145;28;20261;-72
2022/10/08 00:48:03;;;;;;;2.73;1.50;;;;;;;;;;21091139;28;20228;-73
2022/10/08 00:58:09;;;;;;;3.83;1.43;;;;;;;;;;21091452;28;20204;-73
2022/10/08 01:08:26;;;;;;;2.80;1.23;;;;;;;;;;21091772;28;20273;-73
2022/10/08 01:18:37;;;;;;;1.87;1.00;;;;;;;;;;21062708;28;20269;-73
2022/10/08 01:28:41;;;;;;;4.37;1.70;;;;;;;;;;21059047;28;20273;-74
2022/10/08 01:38:52;;;;;;;3.77;1.40;;;14.60;99.90;;;;;;21059004;28;20205;-73
2022/10/08 01:48:57;;;;;;;4.17;2.30;;;;;;;;;;21076039;28;20216;-74
2022/10/08 01:59:06;;;;;;;2.93;1.53;;;14.50;99.90;;;;;;21057336;28;20213;-73
2022/10/08 02:09:10;;;;;;;2.00;1.30;;;;;;;;;;21056963;28;20258;-73
2022/10/08 02:19:42;;;;;;;4.17;1.50;;;14.30;99.90;;;;;;21038266;28;20217;-73
2022/10/08 02:30:05;;;;;;;2.37;1.13;;;;;;;;;;21064000;28;20216;-73
2022/10/08 02:40:09;;;;;;;2.37;1.33;;;;;;;;;;21072087;28;20682;-73
2022/10/08 02:50:15;;;;;;;3.23;1.50;;;;;;;;;;21051420;28;20282;-73
2022/10/08 03:00:16;;;;;;;1.93;1.20;;;;;;;;;;21052207;28;20636;-72
2022/10/08 03:10:18;;;;;;;3.10;1.40;;;;;;;;;;21051665;28;20249;-73
2022/10/08 03:20:22;;;;;;;1.53;1.10;;;;;;;;;;21066451;28;20682;-73
2022/10/08 03:30:23;;;;;;;2.17;1.30;;;;;;;;;;21045555;28;20254;-72
2022/10/08 03:40:25;;;;;;;3.43;1.50;;;;;;;;;;21067505;28;20219;-73
2022/10/08 03:50:27;;;;;;;2.17;1.13;;;;;;;;;;21066952;28;20701;-72
2022/10/08 04:00:29;;;;;;;4.50;1.60;;;;;;;;;;21066209;28;20228;-73
2022/10/08 04:10:31;;;;;;;2.47;1.40;;;;;;;;;;21065776;28;20749;-72
2022/10/08 04:20:33;;;;;;;1.70;1.23;;;;;;;;;;21065044;28;20812;-73
2022/10/08 04:30:35;;;;;;;2.37;1.30;;;;;;;;;;21062023;28;20617;-73
2022/10/08 04:40:36;;;;;;;3.50;1.30;;;;;;;;;;21064628;28;20201;-73
2022/10/08 04:50:38;;;;;;;1.63;1.20;;;13.50;99.90;;;;;;21070259;28;20232;-72
2022/10/08 05:00:40;;;;;;;2.23;1.40;;;;;;;;;;21062738;28;20197;-72
2022/10/08 05:10:47;;;;;;;2.60;1.50;;;;;;;;;;21079610;28;20220;-72
2022/10/08 05:20:48;;;;;;;2.20;1.37;;;;;;;;;;21077215;28;20572;-72
2022/10/08 05:30:50;;;;;;;3.50;1.73;;;;;;;;;;21076914;28;20259;-72
2022/10/08 05:40:52;;;;;;;4.83;1.13;;;;;;;;;;21059814;28;20289;-72
2022/10/08 05:50:54;;;;;;;8.87;1.70;;;;;;;;;;21074888;28;20228;-72
2022/10/08 06:00:56;;;;;;;3.57;1.00;;;;;;;;;;21039069;28;20217;-72
2022/10/08 06:10:58;;;;;;;1.87;1.00;;;;;;;;;;21073277;28;20234;-72
2022/10/08 06:21:05;;;;;;;2.90;1.00;;;;;;;;;;21086737;22;20240;-70
2022/10/08 06:31:08;;;;;;;2.27;1.13;;;;;;;;;;20927007;28;20283;-66
2022/10/08 06:41:10;;;;;;;6.07;1.43;;;;;;;;;;20912167;28;20229;-70
2022/10/08 06:51:15;;;;;;;5.20;1.20;;;13.40;99.90;;;;;;20897568;28;20268;-70
2022/10/08 07:01:19;;;;;;;3.40;1.03;;;13.30;99.90;;;;;;20909609;28;20578;-71
2022/10/08 07:11:22;;;;;;;3.13;1.27;;;;;;;;;;20872880;28;20206;-70
2022/10/08 07:21:26;;;;;;;2.13;0.87;;;13.70;99.90;;;;;;20919946;28;20268;-71
2022/10/08 07:31:30;;;;;;;5.40;1.20;;;;;;;;;;20886204;28;20290;-71
2022/10/08 07:41:32;;;;;;;6.10;1.00;;;14.40;99.90;;;;;;20895131;28;20217;-71
2022/10/08 07:51:34;;;;;;;2.57;1.40;;;14.30;99.90;;;;;;20885338;28;20214;-70
2022/10/08 08:01:39;;;;;;;4.93;1.20;;;;;;;;;;20868521;28;20229;-71
2022/10/08 08:11:41;;;;;;;2.20;1.00;;;14.70;99.90;;;;;;20888596;28;20222;-68
2022/10/08 08:21:43;;;;;;;3.03;1.20;;;;;;;;;;20889718;28;20252;-71
2022/10/08 08:31:46;;;;;;;2.63;0.90;;;;;;;;;;20947956;28;20233;-72
2022/10/08 08:41:52;;;;;;;3.30;0.70;;;15.60;99.90;;;;;;20914098;28;20278;-71
2022/10/08 08:51:55;;;;;;;1.80;0.73;;;;;;;;;;20935538;28;20239;-71
2022/10/08 09:02:09;;;;;;;1.00;0.70;;;16.10;99.90;;;;;;20952567;28;20228;-71
2022/10/08 09:12:43;;;;;;;1.67;0.70;;;16.30;99.90;;;;;;20965671;28;20197;-71
2022/10/08 09:22:47;;;;;;;1.40;0.60;;;16.60;99.90;;;;;;20979112;28;20217;-71
2022/10/08 09:32:53;;;;;;;1.73;0.70;;;16.70;99.90;;;;;;20963782;28;20577;-71
2022/10/08 09:43:17;;;;;;;1.03;0.50;;;;;;;;;;20961705;28;20298;-71
2022/10/08 09:53:21;;;;;;;1.87;0.70;;;16.80;99.90;;;;;;20952383;28;20252;-71
2022/10/08 10:03:25;;;;;;;1.20;0.60;;;;;;;;;;20910180;28;20233;-71
2022/10/08 10:13:31;;;;;;;1.97;0.47;;;;;;;;;;20878451;28;20202;-71
2022/10/08 10:23:34;;;;;;;0.70;0.30;;;;;;;;;;20877324;28;20275;-71
2022/10/08 10:33:44;;;;;;;0.97;0.40;;;;;;;;;;20865152;28;20213;-71
2022/10/08 10:43:47;;;;;;;1.20;0.37;;;;;;;;;;20891275;28;20700;-71
2022/10/08 10:53:59;;;;;;;0.40;0.40;;;17.50;99.90;;;;;;20874417;28;20263;-71
2022/10/08 11:04:09;;;;;;;2.33;0.80;;;;;;;;;;20900957;28;20289;-71
2022/10/08 11:14:31;;;;;;;0.60;0.30;;;;;;;;;;20885709;28;20197;-69
2022/10/08 11:24:53;;;;;;;0.83;0.30;;;;;;;;;;20924692;28;20797;-70
2022/10/08 11:35:12;;;;;;;0.63;0.30;;;;;;;;;;20893942;28;20287;-71
2022/10/08 11:45:13;;;;;;;0.40;0.20;;;;;;;;;;20884271;28;20217;-71
2022/10/08 11:55:27;;;;;;;0.40;0.30;;;;;;;;;;20906123;28;20275;-70
2022/10/08 12:05:44;;;;;;;0.40;0.30;;;16.80;99.90;;;;;;20863713;28;20738;-72
2022/10/08 12:15:46;;;;;;;0.30;0.30;;;;;;;;;;20893781;28;20206;-71
2022/10/08 12:26:01;;;;;;;0.40;0.30;;;;;;;;;;20914973;22;20262;-73
2022/10/08 12:36:03;;;;;;;2.13;0.50;;;;;;;;;;21003641;28;20216;-75
2022/10/08 12:46:17;;;;;;;1.17;0.70;;;;;;;;;;20958125;28;20278;-76
2022/10/08 12:56:26;;;;;;;0.70;0.47;;;16.90;99.90;;;;;;20963764;28;20255;-72
2022/10/08 13:06:28;;;;;;;1.23;0.50;;;;;;;;;;20993780;28;20273;-74
2022/10/08 13:16:44;;;;;;;1.27;0.53;;;;;;;;;;21064607;28;20305;-74
2022/10/08 13:26:54;;;;;;;4.30;1.00;;;;;;;;;;21031486;28;20235;-74
2022/10/08 13:37:01;;;;;;;2.27;0.60;;;16.70;99.90;;;;;;20978859;28;20687;-73
2022/10/08 13:47:04;;;;;;;1.50;0.70;;;16.60;99.90;;;;;;20985985;28;20255;-74
2022/10/08 13:57:06;;;;;;;1.87;0.70;;;;;;;;;;20969117;28;20243;-73
2022/10/08 14:07:34;;;;;;;1.80;0.67;;;;;;;;;;20966983;28;20784;-74
2022/10/08 14:17:36;;;;;;;1.20;0.70;;;;;;;;;;20979150;28;20633;-74
2022/10/08 14:27:37;;;;;;;1.10;0.77;;;;;;;;;;21006849;28;20635;-74
2022/10/08 14:37:39;;;;;;;2.77;0.70;;;16.80;99.90;;;;;;20998105;28;20279;-73
2022/10/08 14:47:41;;;;;;;1.17;0.50;;;;;;;;;;20937321;28;20217;-72
2022/10/08 14:57:43;;;;;;;1.53;0.60;;;;;;;;;;20968124;28;20218;-72
2022/10/08 15:07:45;;;;;;;1.40;0.60;;;;;;;;;;20954971;28;20261;-72
2022/10/08 15:17:47;;;;;;;1.37;0.90;;;;;;;;;;20962513;28;20268;-72
2022/10/08 15:27:50;;;;;;;0.70;0.60;;;;;;;;;;20996527;28;20246;-72
2022/10/08 15:37:52;;;;;;;1.70;0.50;;;;;;;;;;21061694;28;20795;-72
2022/10/08 15:47:53;;;;;;;1.80;0.87;;;;;;;;;;21061575;28;20333;-73
2022/10/08 15:57:55;;;;;;;3.20;0.63;;;;;;;;;;21063779;28;20760;-72
2022/10/08 16:07:57;;;;;;;1.50;0.70;;;;;;;;;;21060313;28;20228;-71
2022/10/08 16:17:59;;;;;;;3.70;0.80;;;;;;;;;;21045169;28;20212;-75
2022/10/08 16:28:00;;;;;;;2.30;0.87;;;;;;;;;;21010848;28;20221;-74
2022/10/08 16:38:02;;;;;;;1.60;1.07;;;;;;;;;;20938187;28;20294;-74
2022/10/08 16:48:07;;;;;;;3.63;1.10;;;;;;;;;;20927962;28;20268;-75
2022/10/08 16:58:08;;;;;;;3.23;0.80;;;;;;;;;;20981327;28;20259;-74
2022/10/08 17:08:10;;;;;;;1.73;0.70;;;;;;;;;;20956528;28;20251;-74
2022/10/08 17:18:12;;;;;;;10.53;6.30;;;;;;;;;;20986543;28;20218;-74
2022/10/08 17:28:14;;;;;;;5.07;2.90;;;;;;;;;;20974624;28;20626;-74
2022/10/08 17:38:16;;;;;;;3.00;1.90;;;;;;;;;;20982856;28;20213;-73
2022/10/08 17:48:18;;;;;;;3.30;1.53;;;;;;;;;;20963748;28;20225;-73
2022/10/08 17:58:20;;;;;;;2.70;1.40;;;;;;;;;;20984593;28;20563;-73
2022/10/08 18:08:23;;;;;;;2.53;1.00;;;;;;;;;;20959002;28;20221;-74
2022/10/08 18:18:25;;;;;;;1.90;0.80;;;;;;;;;;20969848;28;20217;-72
2022/10/08 18:28:27;;;;;;;1.30;0.60;;;;;;;;;;20950682;22;1185271;-68
2022/10/08 18:38:29;;;;;;;2.13;0.80;;;;;;;;;;21010828;28;20216;-68
2022/10/08 18:48:32;;;;;;;1.43;0.90;;;;;;;;;;21026980;28;20278;-68
2022/10/08 18:58:35;;;;;;;2.10;1.00;;;;;;;;;;21038483;28;20265;-68
2022/10/08 19:08:38;;;;;;;2.43;1.60;;;14.40;99.90;;;;;;21041561;28;20297;-68
2022/10/08 19:18:55;;;;;;;2.13;1.20;;;14.40;99.90;;;;;;21045531;28;20297;-68
2022/10/08 19:28:58;;;;;;;2.53;1.23;;;14.10;99.90;;;;;;21043553;28;20228;-68
2022/10/08 19:39:02;;;;;;;3.43;1.93;;;;;;;;;;21023607;28;20294;-68
2022/10/08 19:49:05;;;;;;;2.53;1.50;;;13.40;99.90;;;;;;21018493;28;20236;-68
2022/10/08 19:59:09;;;;;;;2.13;1.17;;;14.10;99.90;;;;;;21021114;28;20234;-68
2022/10/08 20:09:12;;;;;;;1.73;1.00;;;14.00;99.90;;;;;;20965190;28;20220;-68
2022/10/08 20:19:18;;;;;;;2.17;1.20;;;13.90;99.90;;;;;;20987368;28;20265;-68
2022/10/08 20:29:21;;;;;;;2.47;1.20;;;13.80;99.90;;;;;;21050868;28;20273;-67
2022/10/08 20:39:23;;;;;;;1.57;0.93;;;;;;;;;;21015966;28;20518;-68
2022/10/08 20:49:25;;;;;;;1.47;0.80;;;;;;;;;;21014604;28;21407;-68
2022/10/08 20:59:28;;;;;;;1.57;1.00;;;;;;;;;;20989996;28;20208;-68
2022/10/08 21:09:30;;;;;;;2.33;1.43;;;;;;;;;;21021018;28;20240;-68
2022/10/08 21:19:32;;;;;;;4.63;1.60;;;;;;;;;;21041342;28;20285;-68
2022/10/08 21:29:36;;;;;;;2.60;1.10;;;;;;;;;;21042441;28;20236;-68
2022/10/08 21:39:38;;;;;;;2.43;0.90;;;;;;;;;;21051452;28;20541;-68
2022/10/08 21:49:40;;;;;;;1.27;1.00;;;;;;;;;;21052256;28;20583;-68
2022/10/08 21:59:42;;;;;;;2.10;0.87;;;;;;;;;;21051712;28;20204;-68
2022/10/08 22:09:45;;;;;;;1.27;0.80;;;;;;;;;;21050299;28;20287;-68
2022/10/08 22:19:47;;;;;;;3.30;0.73;;;;;;;;;;21034034;28;20208;-68
2022/10/08 22:29:49;;;;;;;1.27;0.80;;;;;;;;;;21046916;28;20261;-68
2022/10/08 22:39:51;;;;;;;2.80;1.03;;;;;;;;;;21028804;28;20266;-68
2022/10/08 22:49:53;;;;;;;1.20;0.77;;;;;;;;;;20991542;28;20793;-68
2022/10/08 22:59:55;;;;;;;2.20;1.30;;;;;;;;;;20933676;28;20217;-68
2022/10/08 23:09:57;;;;;;;2.27;0.77;;;;;;;;;;20963113;28;20727;-70
2022/10/08 23:19:59;;;;;;;2.00;0.90;;;;;;;;;;20959105;28;20551;-69
2022/10/08 23:30:01;;;;;;;0.83;0.60;;;;;;;;;;20895067;28;20221;-68
2022/10/08 23:40:03;;;;;;;1.17;0.63;;;;;;;;;;20988481;28;20216;-68
2022/10/08 23:50:05;;;;;;;1.63;1.10;;;;;;;;;;21008486;28;20224;-68
